createdAt,value
2018-06-25T00:01:53.189Z,15.01
2018-06-25T00:04:23.657Z,15.00
2018-06-25T00:06:53.770Z,14.96
2018-06-25T00:09:23.917Z,14.94
2018-06-25T00:11:54.545Z,14.92
2018-06-25T00:14:24.830Z,14.91
2018-06-25T00:16:55.245Z,14.88
2018-06-25T00:19:25.826Z,14.86
2018-06-25T00:21:56.069Z,14.72
2018-06-25T00:24:26.253Z,14.83
2018-06-25T00:26:56.895Z,14.84
2018-06-25T00:29:27.194Z,14.84
2018-06-25T00:31:58.253Z,14.84
2018-06-25T00:34:29.636Z,14.85
2018-06-25T00:36:59.924Z,14.88
2018-06-25T00:39:30.235Z,14.89
2018-06-25T00:42:00.869Z,14.57
2018-06-25T00:44:31.702Z,14.84
2018-06-25T00:47:01.747Z,14.83
2018-06-25T00:49:32.390Z,14.80
2018-06-25T00:52:02.687Z,14.77
2018-06-25T00:54:32.982Z,14.78
2018-06-25T00:57:03.458Z,14.78
2018-06-25T00:59:43.785Z,14.78
2018-06-25T01:02:14.337Z,14.79
2018-06-25T01:04:46.350Z,14.79
2018-06-25T01:07:16.905Z,14.70
2018-06-25T01:09:47.658Z,14.82
2018-06-25T01:12:17.666Z,14.80
2018-06-25T01:14:47.896Z,14.71
2018-06-25T01:17:17.816Z,14.11
2018-06-25T01:19:47.818Z,14.85
2018-06-25T01:22:18.299Z,14.73
2018-06-25T01:24:48.606Z,14.80
2018-06-25T01:27:19.449Z,14.77
2018-06-25T01:29:50.065Z,14.71
2018-06-25T01:32:20.262Z,14.65
2018-06-25T01:34:50.826Z,14.62
2018-06-25T01:37:21.149Z,14.57
2018-06-25T01:39:51.686Z,14.55
2018-06-25T01:42:22.107Z,14.50
2018-06-25T01:44:52.455Z,14.48
2018-06-25T01:47:23.215Z,14.47
2018-06-25T01:49:53.727Z,14.25
2018-06-25T01:52:24.450Z,14.46
2018-06-25T01:54:54.794Z,14.46
2018-06-25T01:57:25.299Z,14.49
2018-06-25T01:59:55.682Z,14.49
2018-06-25T02:02:25.967Z,14.49
2018-06-25T02:04:56.710Z,14.49
2018-06-25T02:07:27.074Z,14.48
2018-06-25T02:09:57.430Z,14.45
2018-06-25T02:12:28.091Z,14.44
2018-06-25T02:14:59.118Z,14.40
2018-06-25T02:17:29.220Z,14.40
2018-06-25T02:19:59.694Z,14.39
2018-06-25T02:22:30.487Z,14.38
2018-06-25T02:25:00.903Z,14.35
2018-06-25T02:27:31.402Z,14.22
2018-06-25T02:30:02.089Z,14.29
2018-06-25T02:32:32.211Z,14.27
2018-06-25T02:35:02.229Z,14.26
2018-06-25T02:37:32.617Z,14.03
2018-06-25T02:40:03.115Z,13.92
2018-06-25T02:42:33.550Z,14.22
2018-06-25T02:45:04.027Z,14.24
2018-06-25T02:47:34.297Z,14.24
2018-06-25T02:50:04.318Z,14.24
2018-06-25T02:52:34.915Z,14.14
2018-06-25T02:55:05.163Z,14.26
2018-06-25T02:57:35.335Z,14.25
2018-06-25T03:00:05.861Z,14.24
2018-06-25T03:02:36.132Z,14.23
2018-06-25T03:05:06.250Z,14.25
2018-06-25T03:07:37.006Z,14.24
2018-06-25T03:10:07.407Z,14.20
2018-06-25T03:12:37.268Z,14.06
2018-06-25T03:15:07.927Z,14.14
2018-06-25T03:17:37.757Z,14.14
2018-06-25T03:20:08.332Z,13.83
2018-06-25T03:22:38.631Z,14.12
2018-06-25T03:25:09.231Z,14.12
2018-06-25T03:27:43.238Z,13.82
2018-06-25T03:30:14.035Z,13.62
2018-06-25T03:32:44.327Z,14.14
2018-06-25T03:35:14.266Z,14.15
2018-06-25T03:37:44.587Z,14.05
2018-06-25T03:40:14.947Z,14.17
2018-06-25T03:42:45.644Z,14.01
2018-06-25T03:45:15.842Z,14.21
2018-06-25T03:47:46.299Z,14.27
2018-06-25T03:50:16.534Z,14.32
2018-06-25T03:52:46.904Z,14.37
2018-06-25T03:55:17.346Z,14.32
2018-06-25T03:57:47.394Z,14.36
2018-06-25T04:00:17.589Z,14.49
2018-06-25T04:02:47.635Z,14.52
2018-06-25T04:05:17.802Z,14.57
2018-06-25T04:07:47.786Z,14.48
2018-06-25T04:10:22.384Z,14.61
2018-06-25T04:12:52.599Z,14.61
2018-06-25T04:15:22.782Z,14.50
2018-06-25T04:17:53.337Z,14.20
2018-06-25T04:20:23.720Z,14.64
2018-06-25T04:22:53.826Z,14.67
2018-06-25T04:25:24.627Z,14.70
2018-06-25T04:27:54.906Z,14.72
2018-06-25T04:30:25.140Z,14.72
2018-06-25T04:32:54.814Z,14.69
2018-06-25T04:35:25.255Z,14.68
2018-06-25T04:37:55.636Z,14.44
2018-06-25T04:40:25.398Z,14.68
2018-06-25T04:42:56.136Z,14.69
2018-06-25T04:45:27.099Z,14.71
2018-06-25T04:47:57.446Z,14.64
2018-06-25T04:50:28.123Z,14.48
2018-06-25T04:52:58.325Z,14.83
2018-06-25T04:55:28.084Z,14.87
2018-06-25T04:57:58.825Z,14.87
2018-06-25T05:00:29.275Z,14.89
2018-06-25T05:02:59.571Z,14.70
2018-06-25T05:05:29.328Z,14.74
2018-06-25T05:07:59.525Z,14.80
2018-06-25T05:10:29.953Z,14.59
2018-06-25T05:13:00.211Z,14.25
2018-06-25T05:15:30.587Z,14.68
2018-06-25T05:18:01.082Z,14.69
2018-06-25T05:20:32.579Z,14.69
2018-06-25T05:23:03.032Z,14.50
2018-06-25T05:25:34.506Z,14.43
2018-06-25T05:28:04.922Z,14.78
2018-06-25T05:30:35.763Z,14.82
2018-06-25T05:33:06.227Z,14.86
2018-06-25T05:35:36.149Z,14.88
2018-06-25T05:38:06.657Z,14.88
2018-06-25T05:40:36.502Z,14.90
2018-06-25T05:43:07.451Z,14.90
2018-06-25T05:45:37.607Z,13.77
2018-06-25T05:48:07.445Z,14.98
2018-06-25T05:50:37.304Z,15.00
2018-06-25T05:53:07.267Z,15.00
2018-06-25T05:55:37.011Z,15.04
2018-06-25T05:58:06.692Z,15.15
2018-06-25T06:00:36.852Z,15.26
2018-06-25T06:03:07.187Z,14.96
2018-06-25T06:05:38.711Z,15.18
2018-06-25T06:08:09.247Z,15.58
2018-06-25T06:10:39.083Z,15.57
2018-06-25T06:13:08.919Z,15.63
2018-06-25T06:15:38.954Z,14.96
2018-06-25T06:18:12.945Z,15.80
2018-06-25T06:20:43.528Z,15.75
2018-06-25T06:23:14.136Z,15.88
2018-06-25T06:25:43.947Z,15.69
2018-06-25T06:28:13.703Z,15.97
2018-06-25T06:30:43.758Z,15.84
2018-06-25T06:33:13.531Z,15.69
2018-06-25T06:35:43.356Z,16.06
2018-06-25T06:38:13.423Z,16.24
2018-06-25T06:40:43.182Z,16.26
2018-06-25T06:43:12.979Z,16.29
2018-06-25T06:45:43.102Z,16.25
2018-06-25T06:48:12.866Z,16.24
2018-06-25T06:50:42.606Z,15.95
2018-06-25T06:53:12.694Z,16.36
2018-06-25T06:55:42.438Z,16.50
2018-06-25T06:58:12.561Z,16.69
2018-06-25T07:00:42.866Z,16.83
2018-06-25T07:03:13.102Z,16.71
2018-06-25T07:05:42.851Z,16.60
2018-06-25T07:08:13.291Z,16.57
2018-06-25T07:10:43.282Z,16.55
2018-06-25T07:13:13.036Z,16.48
2018-06-25T07:15:43.107Z,16.45
2018-06-25T07:18:12.851Z,16.46
2018-06-25T07:20:43.148Z,16.52
2018-06-25T07:23:13.687Z,16.54
2018-06-25T07:25:44.599Z,16.44
2018-06-25T07:28:15.051Z,16.40
2018-06-25T07:30:44.891Z,16.44
2018-06-25T07:33:15.378Z,16.62
2018-06-25T07:35:45.463Z,16.56
2018-06-25T07:38:15.227Z,17.06
2018-06-25T07:40:45.007Z,17.40
2018-06-25T07:43:15.566Z,17.68
2018-06-25T07:45:45.311Z,18.10
2018-06-25T07:48:15.571Z,18.53
2018-06-25T07:50:45.951Z,18.86
2018-06-25T07:53:15.911Z,19.15
2018-06-25T07:55:45.715Z,19.04
2018-06-25T07:58:16.217Z,19.25
2018-06-25T08:00:45.995Z,19.37
2018-06-25T08:03:15.718Z,19.16
2018-06-25T08:05:46.251Z,19.14
2018-06-25T08:08:16.349Z,19.35
2018-06-25T08:10:46.703Z,19.53
2018-06-25T08:13:16.743Z,19.64
2018-06-25T08:15:47.072Z,19.91
2018-06-25T08:18:17.363Z,19.86
2018-06-25T08:20:47.854Z,20.00
2018-06-25T08:23:18.083Z,20.11
2018-06-25T08:25:48.434Z,20.42
2018-06-25T08:28:19.130Z,20.81
2018-06-25T08:30:48.998Z,20.86
2018-06-25T08:33:19.291Z,20.52
2018-06-25T08:35:49.673Z,20.15
2018-06-25T08:38:20.211Z,19.92
2018-06-25T08:40:50.661Z,19.75
2018-06-25T08:43:20.768Z,19.71
2018-06-25T08:45:50.984Z,19.81
2018-06-25T08:48:20.734Z,20.04
2018-06-25T08:50:52.378Z,20.05
2018-06-25T08:53:22.688Z,20.04
2018-06-25T08:55:53.021Z,20.37
2018-06-25T08:58:23.420Z,20.90
2018-06-25T09:00:53.675Z,20.84
2018-06-25T09:03:23.693Z,20.67
2018-06-25T09:05:53.451Z,20.42
2018-06-25T09:08:24.506Z,19.90
2018-06-25T09:10:56.455Z,19.82
2018-06-25T09:13:27.627Z,19.61
2018-06-25T09:15:57.797Z,19.50
2018-06-25T09:18:28.257Z,19.43
2018-06-25T09:20:58.627Z,19.91
2018-06-25T09:23:29.839Z,20.68
2018-06-25T09:25:59.939Z,21.26
2018-06-25T09:28:29.718Z,21.53
2018-06-25T09:30:59.864Z,21.39
2018-06-25T09:33:30.580Z,21.31
2018-06-25T09:36:00.832Z,22.00
2018-06-25T09:38:30.596Z,22.03
2018-06-25T09:41:00.866Z,22.42
2018-06-25T09:43:30.892Z,22.35
2018-06-25T09:46:01.206Z,22.16
2018-06-25T09:48:31.858Z,21.75
2018-06-25T09:51:01.743Z,21.65
2018-06-25T09:53:31.529Z,21.70
2018-06-25T09:56:02.078Z,21.73
2018-06-25T09:58:31.863Z,21.58
2018-06-25T10:01:06.742Z,21.41
2018-06-25T10:03:37.418Z,21.35
2018-06-25T10:06:08.259Z,21.27
2018-06-25T10:08:39.530Z,21.96
2018-06-25T10:11:09.699Z,22.59
2018-06-25T10:13:39.637Z,23.22
2018-06-25T10:16:09.611Z,24.00
2018-06-25T10:18:39.745Z,24.29
2018-06-25T10:21:10.254Z,24.02
2018-06-25T10:23:44.219Z,23.73
2018-06-25T10:26:14.855Z,23.31
2018-06-25T10:28:45.035Z,22.84
2018-06-25T10:31:15.144Z,22.53
2018-06-25T10:33:49.432Z,22.06
2018-06-25T10:36:19.719Z,21.68
2018-06-25T10:38:49.562Z,21.75
2018-06-25T10:41:20.071Z,22.00
2018-06-25T10:43:49.907Z,22.65
2018-06-25T10:46:20.136Z,23.57
2018-06-25T10:48:54.463Z,24.33
2018-06-25T10:51:24.403Z,24.95
2018-06-25T10:53:54.931Z,25.28
2018-06-25T10:56:25.052Z,24.52
2018-06-25T10:58:54.891Z,23.62
2018-06-25T11:01:25.213Z,23.48
2018-06-25T11:03:54.979Z,23.08
2018-06-25T11:06:24.959Z,22.82
2018-06-25T11:08:55.106Z,22.76
2018-06-25T11:11:24.922Z,23.13
2018-06-25T11:13:54.723Z,23.30
2018-06-25T11:16:24.871Z,23.46
2018-06-25T11:18:54.704Z,23.60
2018-06-25T11:21:24.527Z,24.08
2018-06-25T11:23:54.598Z,24.14
2018-06-25T11:26:24.395Z,23.80
2018-06-25T11:28:54.294Z,23.74
2018-06-25T11:31:24.365Z,24.24
2018-06-25T11:33:54.134Z,24.14
2018-06-25T11:36:23.883Z,23.86
2018-06-25T11:38:53.953Z,23.87
2018-06-25T11:41:23.945Z,24.16
2018-06-25T11:43:53.893Z,24.32
2018-06-25T11:46:24.632Z,24.18
2018-06-25T11:48:54.483Z,23.33
2018-06-25T11:51:25.695Z,23.98
2018-06-25T11:53:55.835Z,23.87
2018-06-25T11:56:25.935Z,23.61
2018-06-25T11:58:55.633Z,23.91
2018-06-25T12:01:26.021Z,24.02
2018-06-25T12:03:55.839Z,24.36
2018-06-25T12:06:25.590Z,24.64
2018-06-25T12:08:55.671Z,24.39
2018-06-25T12:11:25.445Z,24.17
2018-06-25T12:13:55.555Z,24.42
2018-06-25T12:16:26.542Z,25.14
2018-06-25T12:18:57.331Z,25.70
2018-06-25T12:21:27.158Z,25.62
2018-06-25T12:23:57.946Z,25.45
2018-06-25T12:26:27.718Z,25.35
2018-06-25T12:28:57.603Z,25.41
2018-06-25T12:31:27.744Z,25.22
2018-06-25T12:33:57.526Z,25.18
2018-06-25T12:36:27.275Z,25.17
2018-06-25T12:38:57.379Z,25.04
2018-06-25T12:41:27.643Z,24.70
2018-06-25T12:43:57.435Z,24.65
2018-06-25T12:46:27.535Z,24.98
2018-06-25T12:48:58.150Z,25.36
2018-06-25T12:51:27.940Z,25.73
2018-06-25T12:53:58.737Z,26.08
2018-06-25T12:56:28.569Z,26.27
2018-06-25T12:58:58.962Z,26.36
2018-06-25T13:01:29.083Z,26.28
2018-06-25T13:03:59.402Z,26.43
2018-06-25T13:06:29.130Z,26.59
2018-06-25T13:08:59.776Z,26.70
2018-06-25T13:11:29.901Z,26.63
2018-06-25T13:14:00.088Z,26.63
2018-06-25T13:16:30.720Z,26.60
2018-06-25T13:19:00.506Z,26.43
2018-06-25T13:21:30.544Z,26.28
2018-06-25T13:24:00.922Z,26.01
2018-06-25T13:26:30.895Z,26.08
2018-06-25T13:29:00.812Z,25.93
2018-06-25T13:31:31.400Z,25.78
2018-06-25T13:34:01.636Z,25.93
2018-06-25T13:36:31.696Z,25.82
2018-06-25T13:39:02.363Z,25.82
2018-06-25T13:41:32.702Z,25.47
2018-06-25T13:44:02.559Z,25.45
2018-06-25T13:46:33.295Z,25.46
2018-06-25T13:49:03.753Z,25.52
2018-06-25T13:51:33.795Z,25.24
2018-06-25T13:54:04.367Z,25.21
2018-06-25T13:56:34.411Z,25.39
2018-06-25T13:59:04.542Z,25.46
2018-06-25T14:01:35.676Z,25.42
2018-06-25T14:04:05.804Z,25.41
2018-06-25T14:06:37.360Z,25.28
2018-06-25T14:09:11.100Z,24.89
2018-06-25T14:11:41.580Z,24.49
2018-06-25T14:14:12.869Z,24.04
2018-06-25T14:16:44.463Z,23.96
2018-06-25T14:19:17.440Z,23.84
2018-06-25T14:21:48.069Z,23.77
2018-06-25T14:24:23.127Z,23.91
2018-06-25T14:27:04.139Z,24.07
2018-06-25T14:29:41.599Z,24.11
2018-06-25T14:32:16.803Z,23.65
2018-06-25T14:34:53.020Z,23.98
2018-06-25T14:37:23.055Z,23.92
2018-06-25T14:39:53.795Z,23.74
2018-06-25T14:42:24.531Z,23.79
2018-06-25T14:44:55.720Z,23.93
2018-06-25T14:47:25.952Z,23.91
2018-06-25T14:49:56.930Z,24.21
2018-06-25T14:52:26.937Z,22.90
2018-06-25T14:54:57.411Z,24.38
2018-06-25T14:57:27.555Z,24.29
2018-06-25T14:59:58.070Z,24.02
2018-06-25T15:02:29.881Z,23.85
2018-06-25T15:05:00.060Z,23.73
2018-06-25T15:07:30.578Z,23.71
2018-06-25T15:10:00.639Z,23.68
2018-06-25T15:12:30.787Z,23.66
2018-06-25T15:15:01.309Z,23.57
2018-06-25T15:17:31.630Z,23.48
2018-06-25T15:20:01.818Z,23.41
2018-06-25T15:22:32.591Z,23.32
2018-06-25T15:25:02.737Z,23.27
2018-06-25T15:27:35.571Z,23.24
2018-06-25T15:30:06.159Z,23.18
2018-06-25T15:32:36.887Z,22.84
2018-06-25T15:35:13.073Z,23.21
2018-06-25T15:37:43.546Z,23.14
2018-06-25T15:40:14.915Z,23.14
2018-06-25T15:42:45.161Z,23.17
2018-06-25T15:45:16.628Z,23.16
2018-06-25T15:47:46.692Z,23.15
2018-06-25T15:50:16.861Z,23.17
2018-06-25T15:52:47.421Z,23.12
2018-06-25T15:55:17.756Z,23.20
2018-06-25T15:57:48.020Z,23.30
2018-06-25T16:00:19.286Z,23.27
2018-06-25T16:02:49.490Z,23.14
2018-06-25T16:05:19.885Z,22.80
2018-06-25T16:07:50.383Z,22.89
2018-06-25T16:10:20.576Z,22.79
2018-06-25T16:12:50.969Z,22.71
2018-06-25T16:15:21.603Z,22.63
2018-06-25T16:17:51.650Z,22.66
2018-06-25T16:20:21.770Z,22.47
2018-06-25T16:22:52.271Z,22.38
2018-06-25T16:25:22.693Z,22.39
2018-06-25T16:27:53.368Z,22.39
2018-06-25T16:30:24.571Z,22.37
2018-06-25T16:32:54.459Z,22.32
2018-06-25T16:35:25.601Z,22.27
2018-06-25T16:37:55.696Z,22.18
2018-06-25T16:40:25.727Z,22.19
2018-06-25T16:42:55.983Z,22.14
2018-06-25T16:45:26.095Z,22.26
2018-06-25T16:47:55.935Z,22.32
2018-06-25T16:50:26.737Z,22.34
2018-06-25T16:52:58.219Z,22.32
2018-06-25T16:55:28.574Z,22.34
2018-06-25T16:57:58.703Z,22.37
2018-06-25T17:00:29.222Z,22.36
2018-06-25T17:02:59.064Z,22.31
2018-06-25T17:05:29.311Z,21.94
2018-06-25T17:07:59.911Z,22.11
2018-06-25T17:10:29.861Z,21.94
2018-06-25T17:13:01.044Z,21.64
2018-06-25T17:15:31.368Z,21.77
2018-06-25T17:18:01.400Z,21.40
2018-06-25T17:20:31.652Z,21.67
2018-06-25T17:23:01.921Z,21.75
2018-06-25T17:25:31.779Z,21.77
2018-06-25T17:28:01.995Z,21.75
2018-06-25T17:30:32.409Z,21.73
2018-06-25T17:33:03.026Z,21.68
2018-06-25T17:35:34.076Z,21.58
2018-06-25T17:38:03.919Z,21.51
2018-06-25T17:40:34.126Z,21.47
2018-06-25T17:43:05.441Z,21.32
2018-06-25T17:45:36.092Z,20.43
2018-06-25T17:48:07.082Z,21.27
2018-06-25T17:50:38.855Z,21.27
2018-06-25T17:53:11.581Z,21.26
2018-06-25T17:55:42.758Z,21.19
2018-06-25T17:58:14.709Z,21.15
2018-06-25T18:00:44.818Z,21.15
2018-06-25T18:03:15.119Z,21.10
2018-06-25T18:05:45.421Z,21.04
2018-06-25T18:08:15.611Z,21.03
2018-06-25T18:10:45.662Z,21.04
2018-06-25T18:13:16.559Z,21.01
2018-06-25T18:15:47.103Z,21.28
2018-06-25T18:18:17.206Z,21.17
2018-06-25T18:20:47.726Z,21.26
2018-06-25T18:23:18.526Z,21.38
2018-06-25T18:25:48.786Z,21.33
2018-06-25T18:28:19.103Z,21.27
2018-06-25T18:30:49.862Z,21.30
2018-06-25T18:33:20.227Z,21.19
2018-06-25T18:35:50.547Z,21.08
2018-06-25T18:38:20.995Z,20.96
2018-06-25T18:40:50.871Z,20.86
2018-06-25T18:43:20.688Z,20.78
2018-06-25T18:45:50.980Z,20.72
2018-06-25T18:48:21.563Z,20.62
2018-06-25T18:50:52.052Z,20.15
2018-06-25T18:53:22.435Z,20.08
2018-06-25T18:55:52.870Z,20.33
2018-06-25T18:58:22.952Z,20.23
2018-06-25T19:00:53.324Z,20.19
2018-06-25T19:03:23.385Z,20.12
2018-06-25T19:05:54.336Z,20.07
2018-06-25T19:08:24.584Z,20.00
2018-06-25T19:10:55.500Z,19.93
2018-06-25T19:13:25.478Z,19.28
2018-06-25T19:15:55.787Z,19.80
2018-06-25T19:18:25.811Z,19.74
2018-06-25T19:20:55.767Z,19.66
2018-06-25T19:23:26.295Z,19.63
2018-06-25T19:25:56.823Z,19.60
2018-06-25T19:28:26.978Z,19.56
2018-06-25T19:30:57.360Z,19.54
2018-06-25T19:33:28.438Z,19.53
2018-06-25T19:35:58.956Z,19.50
2018-06-25T19:38:30.081Z,19.48
2018-06-25T19:41:00.086Z,19.47
2018-06-25T19:43:30.229Z,19.45
2018-06-25T19:46:00.493Z,19.39
2018-06-25T19:48:30.461Z,19.35
2018-06-25T19:51:01.559Z,19.00
2018-06-25T19:53:32.063Z,19.22
2018-06-25T19:56:02.035Z,19.19
2018-06-25T19:58:32.095Z,19.17
2018-06-25T20:01:02.707Z,19.13
2018-06-25T20:03:33.436Z,19.08
2018-06-25T20:06:03.700Z,19.06
2018-06-25T20:08:33.855Z,19.03
2018-06-25T20:11:04.094Z,19.02
2018-06-25T20:13:34.108Z,19.00
2018-06-25T20:16:04.604Z,18.98
2018-06-25T20:18:34.607Z,18.84
2018-06-25T20:21:04.710Z,18.92
2018-06-25T20:23:35.027Z,18.91
2018-06-25T20:26:05.243Z,18.63
2018-06-25T20:28:35.227Z,18.92
2018-06-25T20:31:05.643Z,18.90
2018-06-25T20:33:35.662Z,18.88
2018-06-25T20:36:06.166Z,18.85
2018-06-25T20:38:36.627Z,18.83
2018-06-25T20:41:07.287Z,18.80
2018-06-25T20:43:37.316Z,18.77
2018-06-25T20:46:07.727Z,18.75
2018-06-25T20:48:37.706Z,18.72
2018-06-25T20:51:08.761Z,18.68
2018-06-25T20:53:40.079Z,18.65
2018-06-25T20:56:10.795Z,18.48
2018-06-25T20:58:41.252Z,18.55
2018-06-25T21:01:11.680Z,18.51
2018-06-25T21:03:41.946Z,18.48
2018-06-25T21:06:12.323Z,18.46
2018-06-25T21:08:42.401Z,18.06
2018-06-25T21:11:12.430Z,18.47
2018-06-25T21:13:42.263Z,18.48
2018-06-25T21:16:12.689Z,18.50
2018-06-25T21:18:42.638Z,18.50
2018-06-25T21:21:12.776Z,18.50
2018-06-25T21:23:43.018Z,18.52
2018-06-25T21:26:12.939Z,18.52
2018-06-25T21:28:43.970Z,18.53
2018-06-25T21:31:14.312Z,18.53
2018-06-25T21:33:44.482Z,18.46
2018-06-25T21:36:14.354Z,18.54
2018-06-25T21:38:44.563Z,18.54
2018-06-25T21:41:14.493Z,18.53
2018-06-25T21:43:45.180Z,18.52
2018-06-25T21:46:17.333Z,18.38
2018-06-25T21:48:47.168Z,18.49
2018-06-25T21:51:18.319Z,18.49
2018-06-25T21:53:48.658Z,18.48
2018-06-25T21:56:18.652Z,18.46
2018-06-25T21:58:49.043Z,18.45
2018-06-25T22:01:19.067Z,18.44
2018-06-25T22:03:49.952Z,18.40
2018-06-25T22:06:20.172Z,18.39
2018-06-25T22:08:50.255Z,18.39
2018-06-25T22:11:20.251Z,18.39
2018-06-25T22:13:51.311Z,18.16
2018-06-25T22:16:22.233Z,18.37
2018-06-25T22:18:52.271Z,18.36
2018-06-25T22:21:22.574Z,18.03
2018-06-25T22:23:52.505Z,18.30
2018-06-25T22:26:22.515Z,18.25
2018-06-25T22:28:52.618Z,18.20
2018-06-25T22:31:22.432Z,18.07
2018-06-25T22:33:52.240Z,18.12
2018-06-25T22:36:22.318Z,17.90
2018-06-25T22:38:53.210Z,18.07
2018-06-25T22:41:23.496Z,18.04
2018-06-25T22:43:58.422Z,17.99
2018-06-25T22:46:28.251Z,17.97
2018-06-25T22:48:58.518Z,17.96
2018-06-25T22:51:29.242Z,17.96
2018-06-25T22:53:59.362Z,17.85
2018-06-25T22:56:29.130Z,17.97
2018-06-25T22:58:59.803Z,17.97
2018-06-25T23:01:31.068Z,17.67
2018-06-25T23:04:00.968Z,17.99
2018-06-25T23:06:31.548Z,18.00
2018-06-25T23:09:01.401Z,18.01
2018-06-25T23:11:31.571Z,18.00
2018-06-25T23:14:02.148Z,18.00
2018-06-25T23:16:31.924Z,18.00
2018-06-25T23:19:02.779Z,17.89
2018-06-25T23:21:32.863Z,17.79
2018-06-25T23:24:02.660Z,17.99
2018-06-25T23:26:32.451Z,17.98
2018-06-25T23:29:03.139Z,17.99
2018-06-25T23:31:33.294Z,18.00
2018-06-25T23:34:03.655Z,18.00
2018-06-25T23:36:34.161Z,18.01
2018-06-25T23:39:05.068Z,18.00
2018-06-25T23:41:35.506Z,18.00
2018-06-25T23:44:06.023Z,18.01
2018-06-25T23:46:36.260Z,18.01
2018-06-25T23:49:06.587Z,17.68
2018-06-25T23:51:37.163Z,18.01
2018-06-25T23:54:07.582Z,18.00
2018-06-25T23:56:37.931Z,18.00
2018-06-25T23:59:08.167Z,18.00
